createdAt,value
2018-02-19T00:00:51.015Z,85.95
2018-02-19T00:03:18.640Z,85.97
2018-02-19T00:05:46.337Z,86.07
2018-02-19T00:08:13.974Z,86.08
2018-02-19T00:10:41.576Z,86.10
2018-02-19T00:13:09.233Z,86.12
2018-02-19T00:15:36.868Z,86.12
2018-02-19T00:18:04.485Z,86.11
2018-02-19T00:20:32.128Z,86.09
2018-02-19T00:22:59.768Z,86.09
2018-02-19T00:25:27.713Z,85.99
2018-02-19T00:27:55.384Z,85.90
2018-02-19T00:30:23.003Z,85.76
2018-02-19T00:32:50.628Z,85.74
2018-02-19T00:35:18.757Z,85.66
2018-02-19T00:37:46.393Z,85.55
2018-02-19T00:40:14.053Z,85.52
2018-02-19T00:42:41.698Z,85.49
2018-02-19T00:45:09.346Z,85.48
2018-02-19T00:47:36.988Z,85.41
2018-02-19T00:50:04.713Z,85.41
2018-02-19T00:52:32.322Z,85.41
2018-02-19T00:55:00.158Z,85.38
2018-02-19T00:57:27.798Z,85.27
2018-02-19T00:59:55.390Z,85.17
2018-02-19T01:02:23.003Z,85.14
2018-02-19T01:04:50.689Z,85.18
2018-02-19T01:07:18.317Z,85.23
2018-02-19T01:09:45.947Z,85.27
2018-02-19T01:12:13.633Z,85.32
2018-02-19T01:14:41.253Z,85.41
2018-02-19T01:17:09.202Z,85.37
2018-02-19T01:19:36.832Z,85.27
2018-02-19T01:22:04.476Z,85.11
2018-02-19T01:24:32.095Z,84.92
2018-02-19T01:27:00.064Z,84.79
2018-02-19T01:29:27.853Z,84.65
2018-02-19T01:31:55.482Z,84.52
2018-02-19T01:34:23.084Z,84.45
2018-02-19T01:36:50.761Z,84.39
2018-02-19T01:39:18.383Z,84.36
2018-02-19T01:41:46.045Z,84.32
2018-02-19T01:44:13.693Z,84.28
2018-02-19T01:46:41.312Z,84.17
2018-02-19T01:49:08.962Z,84.16
2018-02-19T01:51:36.568Z,84.13
2018-02-19T01:54:04.188Z,84.09
2018-02-19T01:56:31.858Z,84.03
2018-02-19T01:58:59.520Z,83.99
2018-02-19T02:01:27.368Z,84.10
2018-02-19T02:03:54.959Z,84.34
2018-02-19T02:06:22.581Z,84.59
2018-02-19T02:08:50.218Z,84.94
2018-02-19T02:11:17.883Z,85.04
2018-02-19T02:13:45.480Z,85.02
2018-02-19T02:16:13.072Z,84.95
2018-02-19T02:18:40.972Z,84.88
2018-02-19T02:21:08.565Z,84.82
2018-02-19T02:23:36.193Z,84.80
2018-02-19T02:26:03.782Z,84.87
2018-02-19T02:28:31.430Z,84.81
2018-02-19T02:30:59.122Z,84.77
2018-02-19T02:33:26.705Z,84.71
2018-02-19T02:35:54.339Z,84.70
2018-02-19T02:38:22.031Z,84.63
2018-02-19T02:40:49.617Z,84.64
2018-02-19T02:43:17.260Z,84.60
2018-02-19T02:45:44.892Z,84.56
2018-02-19T02:48:12.534Z,84.52
2018-02-19T02:50:40.164Z,84.52
2018-02-19T02:53:07.824Z,84.50
2018-02-19T02:55:35.441Z,84.52
2018-02-19T02:58:03.085Z,84.53
2018-02-19T03:00:30.738Z,84.53
2018-02-19T03:02:58.398Z,84.51
2018-02-19T03:05:26.031Z,84.51
2018-02-19T03:07:53.666Z,84.47
2018-02-19T03:10:21.297Z,84.44
2018-02-19T03:12:48.901Z,84.42
2018-02-19T03:15:16.548Z,84.43
2018-02-19T03:17:44.141Z,84.47
2018-02-19T03:20:12.118Z,84.52
2018-02-19T03:22:39.774Z,84.67
2018-02-19T03:25:07.648Z,84.69
2018-02-19T03:27:35.287Z,84.75
2018-02-19T03:30:02.932Z,84.75
2018-02-19T03:32:30.539Z,84.74
2018-02-19T03:34:58.138Z,84.82
2018-02-19T03:37:25.784Z,84.82
2018-02-19T03:39:53.391Z,84.76
2018-02-19T03:42:21.026Z,84.83
2018-02-19T03:44:48.698Z,84.93
2018-02-19T03:47:16.615Z,84.89
2018-02-19T03:49:44.586Z,84.99
2018-02-19T03:52:12.252Z,84.99
2018-02-19T03:54:39.934Z,85.01
2018-02-19T03:57:07.518Z,85.06
2018-02-19T03:59:35.134Z,85.04
2018-02-19T04:02:02.733Z,85.20
2018-02-19T04:04:30.394Z,85.37
2018-02-19T04:06:58.082Z,85.42
2018-02-19T04:09:25.985Z,85.45
2018-02-19T04:11:53.755Z,85.50
2018-02-19T04:14:21.381Z,85.53
2018-02-19T04:16:49.029Z,85.81
2018-02-19T04:19:16.685Z,85.75
2018-02-19T04:21:44.277Z,85.72
2018-02-19T04:24:11.869Z,85.67
2018-02-19T04:26:39.552Z,85.75
2018-02-19T04:29:07.166Z,86.12
2018-02-19T04:31:34.834Z,86.16
2018-02-19T04:34:02.494Z,86.08
2018-02-19T04:36:30.072Z,86.02
2018-02-19T04:38:57.687Z,86.06
2018-02-19T04:41:25.344Z,86.21
2018-02-19T04:43:53.016Z,86.31
2018-02-19T04:46:25.231Z,86.16
2018-02-19T04:48:52.820Z,86.01
2018-02-19T04:51:20.422Z,85.89
2018-02-19T04:53:48.115Z,85.77
2018-02-19T04:56:15.733Z,85.70
2018-02-19T04:58:43.333Z,85.70
2018-02-19T05:01:11.003Z,85.71
2018-02-19T05:03:38.609Z,85.73
2018-02-19T05:06:06.252Z,85.80
2018-02-19T05:08:34.114Z,85.90
2018-02-19T05:11:01.726Z,85.92
2018-02-19T05:13:29.370Z,85.90
2018-02-19T05:15:57.010Z,85.93
2018-02-19T05:18:24.671Z,85.93
2018-02-19T05:20:52.595Z,85.92
2018-02-19T05:23:20.213Z,86.15
2018-02-19T05:25:47.886Z,86.38
2018-02-19T05:28:15.506Z,86.36
2018-02-19T05:30:43.450Z,86.44
2018-02-19T05:33:11.079Z,86.42
2018-02-19T05:35:38.755Z,86.39
2018-02-19T05:38:06.656Z,86.46
2018-02-19T05:40:34.293Z,86.47
2018-02-19T05:43:02.029Z,86.53
2018-02-19T05:45:29.865Z,86.52
2018-02-19T05:47:57.492Z,86.58
2018-02-19T05:50:25.229Z,86.53
2018-02-19T05:52:52.851Z,86.54
2018-02-19T05:55:20.786Z,86.60
2018-02-19T05:57:48.459Z,86.55
2018-02-19T06:00:16.092Z,86.52
2018-02-19T06:02:43.696Z,86.50
2018-02-19T06:05:11.363Z,86.61
2018-02-19T06:07:38.967Z,86.56
2018-02-19T06:10:06.570Z,86.50
2018-02-19T06:12:34.529Z,86.52
2018-02-19T06:15:02.395Z,86.52
2018-02-19T06:17:30.036Z,86.50
2018-02-19T06:19:57.775Z,86.46
2018-02-19T06:22:25.374Z,86.41
2018-02-19T06:24:52.999Z,86.40
2018-02-19T06:27:20.664Z,86.41
2018-02-19T06:29:48.247Z,86.49
2018-02-19T06:32:15.841Z,86.60
2018-02-19T06:34:43.796Z,86.60
2018-02-19T06:37:11.400Z,86.73
2018-02-19T06:39:39.214Z,86.64
2018-02-19T06:42:06.861Z,86.61
2018-02-19T06:44:34.506Z,86.64
2018-02-19T06:47:02.146Z,86.67
2018-02-19T06:49:29.805Z,86.61
2018-02-19T06:51:57.377Z,86.64
2018-02-19T06:54:25.221Z,86.66
2018-02-19T06:56:53.165Z,86.78
2018-02-19T06:59:21.132Z,86.87
2018-02-19T07:01:48.747Z,86.96
2018-02-19T07:04:16.469Z,87.02
2018-02-19T07:06:44.092Z,87.03
2018-02-19T07:09:11.698Z,87.24
2018-02-19T07:11:39.478Z,87.18
2018-02-19T07:14:07.080Z,87.17
2018-02-19T07:16:35.573Z,87.13
2018-02-19T07:19:03.235Z,87.11
2018-02-19T07:21:31.975Z,87.10
2018-02-19T07:23:59.566Z,87.13
2018-02-19T07:26:27.181Z,87.21
2018-02-19T07:28:54.830Z,87.16
2018-02-19T07:31:22.451Z,87.11
2018-02-19T07:33:50.460Z,86.97
2018-02-19T07:36:18.110Z,86.81
2018-02-19T07:38:45.802Z,86.76
2018-02-19T07:41:13.464Z,86.78
2018-02-19T07:43:41.124Z,86.83
2018-02-19T07:46:08.801Z,86.84
2018-02-19T07:48:36.570Z,86.71
2018-02-19T07:51:04.174Z,86.63
2018-02-19T07:53:31.843Z,86.61
2018-02-19T07:55:59.525Z,86.58
2018-02-19T07:58:27.373Z,86.60
2018-02-19T08:00:54.989Z,86.57
2018-02-19T08:03:22.593Z,86.55
2018-02-19T08:05:50.170Z,86.49
2018-02-19T08:08:17.821Z,86.45
2018-02-19T08:10:45.478Z,86.36
2018-02-19T08:13:13.076Z,86.32
2018-02-19T08:15:40.964Z,86.30
2018-02-19T08:18:08.593Z,86.19
2018-02-19T08:20:36.173Z,85.97
2018-02-19T08:23:03.764Z,85.37
2018-02-19T08:25:31.387Z,85.34
2018-02-19T08:27:59.032Z,85.03
2018-02-19T08:30:26.623Z,84.86
2018-02-19T08:32:54.560Z,84.71
2018-02-19T08:35:22.212Z,84.62
2018-02-19T08:37:49.870Z,84.69
2018-02-19T08:40:17.553Z,84.94
2018-02-19T08:42:45.190Z,84.87
2018-02-19T08:45:12.788Z,84.74
2018-02-19T08:47:40.401Z,84.55
2018-02-19T08:50:08.020Z,84.27
2018-02-19T08:52:35.747Z,84.42
2018-02-19T08:55:03.447Z,84.31
2018-02-19T08:57:31.060Z,84.24
2018-02-19T08:59:58.735Z,84.30
2018-02-19T09:02:26.336Z,84.21
2018-02-19T09:04:54.011Z,83.81
2018-02-19T09:07:21.708Z,83.51
2018-02-19T09:09:49.348Z,83.53
2018-02-19T09:12:16.982Z,83.58
2018-02-19T09:14:44.656Z,83.42
2018-02-19T09:17:12.253Z,83.25
2018-02-19T09:19:39.851Z,82.56
2018-02-19T09:22:07.755Z,82.56
2018-02-19T09:24:35.372Z,82.57
2018-02-19T09:27:03.332Z,82.55
2018-02-19T09:29:30.970Z,81.88
2018-02-19T09:31:58.968Z,81.89
2018-02-19T09:34:26.573Z,82.13
2018-02-19T09:36:54.201Z,82.16
2018-02-19T09:39:21.833Z,81.67
2018-02-19T09:41:49.478Z,81.68
2018-02-19T09:44:17.110Z,81.71
2018-02-19T09:46:44.755Z,81.74
2018-02-19T09:49:12.718Z,81.57
2018-02-19T09:51:40.370Z,81.43
2018-02-19T09:54:07.970Z,81.39
2018-02-19T09:56:35.634Z,81.24
2018-02-19T09:59:03.274Z,80.75
2018-02-19T10:01:31.424Z,80.77
2018-02-19T10:03:59.028Z,80.71
2018-02-19T10:06:26.654Z,80.68
2018-02-19T10:08:54.520Z,80.18
2018-02-19T10:11:22.161Z,80.50
2018-02-19T10:13:49.825Z,80.43
2018-02-19T10:16:17.419Z,80.55
2018-02-19T10:18:45.273Z,79.88
2018-02-19T10:21:12.963Z,79.49
2018-02-19T10:23:40.910Z,79.29
2018-02-19T10:26:08.591Z,79.25
2018-02-19T10:28:36.434Z,79.39
2018-02-19T10:31:04.024Z,79.01
2018-02-19T10:33:32.474Z,78.72
2018-02-19T10:36:00.077Z,77.85
2018-02-19T10:38:27.706Z,77.68
2018-02-19T10:40:55.308Z,77.35
2018-02-19T10:43:23.084Z,77.30
2018-02-19T10:45:50.762Z,77.40
2018-02-19T10:48:18.387Z,77.38
2018-02-19T10:50:46.002Z,77.18
2018-02-19T10:53:13.686Z,76.81
2018-02-19T10:55:41.284Z,77.34
2018-02-19T10:58:09.038Z,77.51
2018-02-19T11:00:42.370Z,76.97
2018-02-19T11:03:09.982Z,76.77
2018-02-19T11:05:37.591Z,75.53
2018-02-19T11:08:05.582Z,75.54
2018-02-19T11:10:33.213Z,75.07
2018-02-19T11:13:00.815Z,74.66
2018-02-19T11:15:28.711Z,74.61
2018-02-19T11:17:56.383Z,74.52
2018-02-19T11:20:24.302Z,73.97
2018-02-19T11:22:51.893Z,74.27
2018-02-19T11:25:19.503Z,74.51
2018-02-19T11:27:47.394Z,74.36
2018-02-19T11:30:15.121Z,72.50
2018-02-19T11:32:43.125Z,72.64
2018-02-19T11:35:10.828Z,72.43
2018-02-19T11:37:38.541Z,72.18
2018-02-19T11:40:06.601Z,72.49
2018-02-19T11:42:34.596Z,72.71
2018-02-19T11:45:02.213Z,71.55
2018-02-19T11:47:29.880Z,71.78
2018-02-19T11:49:57.790Z,71.21
2018-02-19T11:52:25.766Z,71.70
2018-02-19T11:54:53.482Z,71.83
2018-02-19T11:57:21.103Z,71.37
2018-02-19T11:59:48.821Z,71.04
2018-02-19T12:02:16.466Z,70.23
2018-02-19T12:04:44.186Z,70.60
2018-02-19T12:07:11.912Z,70.22
2018-02-19T12:09:39.641Z,70.67
2018-02-19T12:12:07.349Z,71.14
2018-02-19T12:14:35.148Z,71.53
2018-02-19T12:17:02.937Z,71.25
2018-02-19T12:19:30.693Z,71.33
2018-02-19T12:21:58.375Z,70.53
2018-02-19T12:24:26.086Z,70.76
2018-02-19T12:26:53.850Z,71.26
2018-02-19T12:29:21.554Z,70.84
2018-02-19T12:31:49.255Z,70.59
2018-02-19T12:34:17.029Z,70.70
2018-02-19T12:36:44.773Z,70.04
2018-02-19T12:39:12.468Z,70.50
2018-02-19T12:41:40.451Z,70.61
2018-02-19T12:44:08.123Z,70.67
2018-02-19T12:46:35.818Z,70.06
2018-02-19T12:49:04.400Z,70.23
2018-02-19T12:51:31.997Z,70.24
2018-02-19T12:53:59.741Z,70.60
2018-02-19T12:56:27.371Z,70.51
2018-02-19T12:58:55.098Z,68.99
2018-02-19T13:01:22.884Z,69.54
2018-02-19T13:03:50.552Z,69.86
2018-02-19T13:06:18.270Z,69.44
2018-02-19T13:08:45.981Z,69.07
2018-02-19T13:11:14.319Z,68.67
2018-02-19T13:13:42.305Z,68.45
2018-02-19T13:16:09.928Z,66.92
2018-02-19T13:18:37.618Z,67.62
2018-02-19T13:21:05.263Z,67.71
2018-02-19T13:23:33.022Z,67.86
2018-02-19T13:26:00.702Z,67.50
2018-02-19T13:28:28.662Z,67.97
2018-02-19T13:30:56.418Z,67.74
2018-02-19T13:33:24.156Z,68.22
2018-02-19T13:35:51.900Z,67.17
2018-02-19T13:38:19.611Z,67.42
2018-02-19T13:40:47.312Z,68.13
2018-02-19T13:43:15.401Z,68.08
2018-02-19T13:45:43.094Z,67.49
2018-02-19T13:48:10.824Z,67.56
2018-02-19T13:50:38.781Z,67.81
2018-02-19T13:53:06.637Z,67.80
2018-02-19T13:55:34.295Z,68.05
2018-02-19T13:58:02.185Z,67.90
2018-02-19T14:00:29.916Z,68.14
2018-02-19T14:02:57.608Z,68.28
2018-02-19T14:05:25.275Z,68.24
2018-02-19T14:07:53.436Z,68.27
2018-02-19T14:10:22.873Z,66.51
2018-02-19T14:12:50.702Z,67.12
2018-02-19T14:15:18.449Z,67.87
2018-02-19T14:17:46.316Z,68.34
2018-02-19T14:20:14.176Z,68.12
2018-02-19T14:22:41.842Z,68.20
2018-02-19T14:25:09.462Z,67.75
2018-02-19T14:27:37.223Z,67.70
2018-02-19T14:30:05.030Z,67.84
2018-02-19T14:32:32.751Z,67.93
2018-02-19T14:35:00.525Z,67.28
2018-02-19T14:37:28.246Z,67.32
2018-02-19T14:39:55.937Z,67.61
2018-02-19T14:42:23.703Z,67.88
2018-02-19T14:44:51.400Z,67.23
2018-02-19T14:47:20.136Z,66.96
2018-02-19T14:49:47.799Z,66.55
2018-02-19T14:52:15.523Z,64.34
2018-02-19T14:54:43.543Z,64.44
2018-02-19T14:57:11.172Z,64.98
2018-02-19T14:59:38.837Z,65.05
2018-02-19T15:02:06.490Z,65.32
2018-02-19T15:04:34.162Z,65.81
2018-02-19T15:07:01.854Z,65.76
2018-02-19T15:09:29.502Z,65.57
2018-02-19T15:11:57.209Z,65.57
2018-02-19T15:14:24.862Z,65.36
2018-02-19T15:16:52.485Z,65.36
2018-02-19T15:19:20.152Z,65.67
2018-02-19T15:21:47.808Z,65.78
2018-02-19T15:24:15.507Z,65.72
2018-02-19T15:26:43.171Z,65.92
2018-02-19T15:29:10.823Z,66.18
2018-02-19T15:31:38.601Z,66.57
2018-02-19T15:34:06.312Z,66.79
2018-02-19T15:36:34.938Z,66.84
2018-02-19T15:39:02.624Z,67.09
2018-02-19T15:41:30.541Z,67.29
2018-02-19T15:43:58.191Z,67.41
2018-02-19T15:46:25.823Z,67.64
2018-02-19T15:48:53.543Z,67.87
2018-02-19T15:51:21.228Z,68.02
2018-02-19T15:53:48.888Z,68.27
2018-02-19T15:56:16.585Z,68.43
2018-02-19T15:58:44.231Z,68.48
2018-02-19T16:01:11.902Z,68.59
2018-02-19T16:03:39.559Z,68.65
2018-02-19T16:06:07.246Z,68.68
2018-02-19T16:08:34.908Z,68.75
2018-02-19T16:11:02.636Z,68.72
2018-02-19T16:13:30.350Z,68.76
2018-02-19T16:15:58.003Z,68.87
2018-02-19T16:18:25.635Z,68.93
2018-02-19T16:20:53.380Z,68.96
2018-02-19T16:23:21.074Z,68.97
2018-02-19T16:25:48.710Z,68.92
2018-02-19T16:28:16.352Z,68.91
2018-02-19T16:30:44.059Z,69.01
2018-02-19T16:33:11.719Z,69.13
2018-02-19T16:35:39.320Z,69.23
2018-02-19T16:38:07.204Z,69.27
2018-02-19T16:40:35.161Z,69.30
2018-02-19T16:43:02.788Z,69.33
2018-02-19T16:45:30.461Z,69.39
2018-02-19T16:47:58.080Z,69.46
2018-02-19T16:50:25.742Z,69.60
2018-02-19T16:52:53.419Z,69.70
2018-02-19T16:55:21.013Z,69.83
2018-02-19T16:57:48.660Z,69.95
2018-02-19T17:00:16.312Z,70.03
2018-02-19T17:02:44.000Z,70.09
2018-02-19T17:05:11.655Z,70.18
2018-02-19T17:07:39.268Z,70.29
2018-02-19T17:10:06.924Z,70.45
2018-02-19T17:12:34.596Z,70.57
2018-02-19T17:15:02.421Z,70.72
2018-02-19T17:17:30.103Z,70.93
2018-02-19T17:19:57.828Z,71.14
2018-02-19T17:22:25.473Z,71.37
2018-02-19T17:24:53.162Z,71.53
2018-02-19T17:27:21.058Z,71.72
2018-02-19T17:29:48.701Z,71.99
2018-02-19T17:32:16.414Z,72.29
2018-02-19T17:34:44.125Z,72.50
2018-02-19T17:37:11.827Z,72.66
2018-02-19T17:39:39.471Z,72.81
2018-02-19T17:42:07.202Z,72.95
2018-02-19T17:44:34.853Z,73.09
2018-02-19T17:47:02.773Z,73.27
2018-02-19T17:49:30.468Z,73.45
2018-02-19T17:51:58.136Z,73.64
2018-02-19T17:54:25.835Z,73.86
2018-02-19T17:56:53.829Z,74.07
2018-02-19T17:59:21.791Z,74.19
2018-02-19T18:01:49.509Z,74.31
2018-02-19T18:04:17.119Z,74.40
2018-02-19T18:06:44.810Z,74.38
2018-02-19T18:09:12.526Z,74.33
2018-02-19T18:11:40.145Z,74.41
2018-02-19T18:14:07.869Z,74.70
2018-02-19T18:16:35.521Z,74.98
2018-02-19T18:19:03.184Z,75.07
2018-02-19T18:21:31.311Z,75.04
2018-02-19T18:23:59.214Z,75.19
2018-02-19T18:26:26.916Z,75.47
2018-02-19T18:28:54.611Z,75.63
2018-02-19T18:31:22.295Z,75.76
2018-02-19T18:33:50.022Z,75.93
2018-02-19T18:36:17.689Z,76.11
2018-02-19T18:38:45.329Z,76.21
2018-02-19T18:41:13.077Z,76.15
2018-02-19T18:43:40.829Z,76.23
2018-02-19T18:46:08.518Z,76.35
2018-02-19T18:48:36.154Z,76.34
2018-02-19T18:51:03.837Z,76.40
2018-02-19T18:53:31.495Z,76.44
2018-02-19T18:55:59.200Z,76.49
2018-02-19T18:58:26.824Z,76.60
2018-02-19T19:00:54.766Z,76.82
2018-02-19T19:03:22.484Z,76.80
2018-02-19T19:05:50.123Z,76.86
2018-02-19T19:08:29.619Z,76.98
2018-02-19T19:10:57.222Z,77.11
2018-02-19T19:13:24.823Z,77.37
2018-02-19T19:15:52.729Z,77.62
2018-02-19T19:18:20.707Z,77.82
2018-02-19T19:20:48.782Z,77.99
2018-02-19T19:23:16.402Z,78.21
2018-02-19T19:25:44.099Z,78.22
2018-02-19T19:28:11.795Z,78.13
2018-02-19T19:30:39.451Z,78.04
2018-02-19T19:33:07.105Z,77.93
2018-02-19T19:35:34.788Z,77.81
2018-02-19T19:38:02.458Z,77.80
2018-02-19T19:40:30.084Z,77.95
2018-02-19T19:42:57.761Z,78.10
2018-02-19T19:45:25.368Z,78.19
2018-02-19T19:47:53.019Z,78.11
2018-02-19T19:50:20.728Z,78.05
2018-02-19T19:52:48.375Z,78.26
2018-02-19T19:55:24.510Z,78.53
2018-02-19T19:57:52.797Z,78.97
2018-02-19T20:00:20.442Z,79.23
2018-02-19T20:02:48.254Z,79.50
2018-02-19T20:05:15.953Z,79.65
2018-02-19T20:07:43.622Z,79.80
2018-02-19T20:10:11.900Z,79.86
2018-02-19T20:12:39.619Z,79.94
2018-02-19T20:15:07.317Z,79.92
2018-02-19T20:17:35.247Z,79.76
2018-02-19T20:20:03.229Z,79.65
2018-02-19T20:22:30.913Z,79.59
2018-02-19T20:24:58.600Z,79.53
2018-02-19T20:27:26.272Z,79.42
2018-02-19T20:29:53.942Z,79.32
2018-02-19T20:32:21.800Z,79.21
2018-02-19T20:34:49.756Z,79.19
2018-02-19T20:37:17.455Z,79.24
2018-02-19T20:39:45.181Z,79.36
2018-02-19T20:42:12.853Z,79.44
2018-02-19T20:44:40.886Z,79.70
2018-02-19T20:47:08.587Z,79.91
2018-02-19T20:49:36.239Z,79.99
2018-02-19T20:52:04.009Z,80.04
2018-02-19T20:54:31.719Z,80.11
2018-02-19T20:56:59.353Z,80.14
2018-02-19T20:59:27.011Z,80.04
2018-02-19T21:01:54.659Z,79.94
2018-02-19T21:04:22.401Z,79.93
2018-02-19T21:06:50.127Z,80.17
2018-02-19T21:09:17.796Z,80.52
2018-02-19T21:11:45.452Z,80.58
2018-02-19T21:14:13.139Z,80.62
2018-02-19T21:16:40.806Z,80.82
2018-02-19T21:19:08.430Z,81.00
2018-02-19T21:21:36.071Z,81.12
2018-02-19T21:24:03.746Z,81.19
2018-02-19T21:26:31.676Z,81.25
2018-02-19T21:28:59.644Z,81.35
2018-02-19T21:31:27.407Z,81.54
2018-02-19T21:33:55.032Z,82.20
2018-02-19T21:36:22.732Z,82.65
2018-02-19T21:38:50.431Z,82.95
2018-02-19T21:41:18.069Z,83.21
2018-02-19T21:43:46.097Z,83.48
2018-02-19T21:46:13.741Z,83.72
2018-02-19T21:48:41.849Z,84.00
2018-02-19T21:51:09.609Z,84.21
2018-02-19T21:53:37.211Z,84.40
2018-02-19T21:56:04.968Z,84.56
2018-02-19T21:58:33.319Z,84.64
2018-02-19T22:01:06.717Z,84.65
2018-02-19T22:03:36.310Z,84.52
2018-02-19T22:06:04.103Z,84.57
2018-02-19T22:08:31.729Z,84.57
2018-02-19T22:10:59.370Z,84.53
2018-02-19T22:13:27.122Z,84.55
2018-02-19T22:15:54.766Z,84.54
2018-02-19T22:18:22.358Z,84.48
2018-02-19T22:20:49.949Z,84.41
2018-02-19T22:23:17.572Z,84.44
2018-02-19T22:25:45.248Z,84.34
2018-02-19T22:28:12.882Z,84.20
2018-02-19T22:30:40.493Z,84.11
2018-02-19T22:33:08.137Z,84.13
2018-02-19T22:35:35.756Z,84.07
2018-02-19T22:38:03.438Z,83.97
2018-02-19T22:40:31.023Z,83.85
2018-02-19T22:42:58.863Z,83.76
2018-02-19T22:45:26.496Z,83.77
2018-02-19T22:47:54.155Z,83.79
2018-02-19T22:50:21.867Z,83.85
2018-02-19T22:52:49.468Z,84.00
2018-02-19T22:55:17.160Z,84.06
2018-02-19T22:57:44.767Z,84.07
2018-02-19T23:00:13.295Z,84.00
2018-02-19T23:02:40.966Z,83.90
2018-02-19T23:05:08.564Z,83.86
2018-02-19T23:07:36.226Z,83.87
2018-02-19T23:10:03.827Z,83.94
2018-02-19T23:12:31.467Z,83.89
2018-02-19T23:14:59.544Z,83.87
2018-02-19T23:17:27.209Z,83.79
2018-02-19T23:19:54.899Z,83.71
2018-02-19T23:22:22.541Z,83.63
2018-02-19T23:24:50.201Z,83.57
2018-02-19T23:27:17.788Z,83.49
2018-02-19T23:29:45.451Z,83.39
2018-02-19T23:32:13.176Z,83.35
2018-02-19T23:34:40.772Z,83.35
2018-02-19T23:37:08.431Z,83.46
2018-02-19T23:39:36.081Z,84.00
2018-02-19T23:42:03.685Z,84.97
2018-02-19T23:44:31.346Z,85.96
2018-02-19T23:46:59.218Z,86.20
2018-02-19T23:49:26.909Z,86.48
2018-02-19T23:51:54.538Z,86.61
2018-02-19T23:54:22.185Z,86.65
2018-02-19T23:56:50.094Z,86.74
2018-02-19T23:59:17.762Z,86.77
